Time;durP1;ratioP1;P1;durP2;ratioP2;P2;SDS_P1;SDS_P2;PMS_P1;PMS_P2;Temp;Humidity;BMP_temperature;BMP_pressure;BME280_temperature;BME280_humidity;BME280_pressure;Samples;Min_cycle;Max_cycle;Signal;HPM_P1;HPM_P2
2023/10/04 00:01:50;;;;;;;1.80;1.40;;;25.60;68.20;;;;;;5080302;27;89696;-54
2023/10/04 00:04:18;;;;;;;2.50;1.40;;;25.60;68.20;;;;;;5077006;27;88072;-54
2023/10/04 00:06:48;;;;;;;4.43;2.27;;;25.60;68.20;;;;;;5080056;27;87721;-53
2023/10/04 00:09:16;;;;;;;3.53;1.37;;;25.60;68.20;;;;;;5067937;27;87667;-54
2023/10/04 00:11:44;;;;;;;2.90;1.93;;;25.60;68.20;;;;;;5078798;27;89447;-54
2023/10/04 00:14:12;;;;;;;2.33;1.70;;;25.50;68.10;;;;;;5069553;27;89081;-53
2023/10/04 00:16:40;;;;;;;4.07;1.80;;;25.60;68.20;;;;;;5072727;27;88665;-54
2023/10/04 00:19:09;;;;;;;2.30;1.63;;;25.50;68.00;;;;;;5078184;27;87634;-53
2023/10/04 00:21:37;;;;;;;3.40;1.60;;;25.60;68.20;;;;;;5074856;27;87604;-54
2023/10/04 00:24:09;;;;;;;3.57;1.93;;;25.50;68.10;;;;;;5078864;27;89141;-53
2023/10/04 00:26:38;;;;;;;1.70;1.07;;;25.60;68.20;;;;;;5072989;27;88667;-54
2023/10/04 00:29:06;;;;;;;2.63;1.37;;;25.60;68.20;;;;;;5077498;27;87615;-53
2023/10/04 00:31:36;;;;;;;1.33;1.03;;;25.60;68.20;;;;;;5070424;27;89657;-54
2023/10/04 00:34:07;;;;;;;3.23;1.40;;;25.50;68.10;;;;;;5076518;27;89132;-53
2023/10/04 00:36:35;;;;;;;2.23;1.07;;;25.50;68.20;;;;;;5073073;27;88770;-54
2023/10/04 00:39:06;;;;;;;2.40;1.40;;;25.60;68.10;;;;;;5072569;27;88041;-54
2023/10/04 00:41:36;;;;;;;4.60;1.93;;;25.50;68.00;;;;;;5075865;27;88494;-54
2023/10/04 00:44:04;;;;;;;2.67;1.50;;;25.60;68.20;;;;;;5072540;27;88043;-54
2023/10/04 00:46:36;;;;;;;1.43;1.17;;;25.50;68.10;;;;;;5073089;27;88806;-54
2023/10/04 00:49:04;;;;;;;2.40;1.80;;;25.50;69.00;;;;;;5073827;27;87444;-54
2023/10/04 00:51:36;;;;;;;2.60;2.03;;;25.50;68.20;;;;;;5074818;27;89561;-53
2023/10/04 00:54:07;;;;;;;5.63;1.93;;;25.50;68.20;;;;;;5073394;27;89392;-54
2023/10/04 00:56:38;;;;;;;2.00;1.50;;;25.50;68.20;;;;;;5072918;27;87905;-53
2023/10/04 00:59:07;;;;;;;3.40;1.80;;;25.50;68.30;;;;;;5075329;27;88287;-54
2023/10/04 01:01:40;;;;;;;5.20;2.57;;;25.40;68.20;;;;;;5072281;27;88743;-54
2023/10/04 01:04:10;;;;;;;4.43;2.33;;;25.50;68.50;;;;;;5071382;27;90017;-54
2023/10/04 01:06:39;;;;;;;4.67;2.90;;;25.50;68.30;;;;;;5071689;27;88670;-54
2023/10/04 01:09:08;;;;;;;5.67;2.90;;;25.50;68.50;;;;;;5073292;27;87673;-54
2023/10/04 01:11:45;;;;;;;4.50;2.90;;;25.40;68.40;;;;;;5073127;27;89658;-53
2023/10/04 01:14:20;;;;;;;4.10;2.80;;;25.40;68.50;;;;;;5070912;27;88129;-54
2023/10/04 01:16:50;;;;;;;3.73;2.40;;;25.40;68.50;;;;;;5071072;27;87715;-53
2023/10/04 01:19:18;;;;;;;7.83;3.37;;;25.40;68.50;;;;;;5083591;27;87342;-53
2023/10/04 01:21:46;;;;;;;3.87;2.60;;;25.40;68.50;;;;;;5082877;27;89762;-54
2023/10/04 01:24:16;;;;;;;5.67;2.60;;;25.40;68.60;;;;;;5082549;27;88088;-54
2023/10/04 01:26:45;;;;;;;5.67;3.30;;;25.40;68.60;;;;;;5082937;27;87189;-54
2023/10/04 01:29:15;;;;;;;6.00;3.67;;;25.40;68.70;;;;;;5082967;27;87660;-54
2023/10/04 01:31:43;;;;;;;4.60;2.80;;;25.40;68.70;;;;;;5076701;27;88780;-54
2023/10/04 01:34:13;;;;;;;6.43;3.53;;;25.40;68.80;;;;;;5082693;27;88142;-54
2023/10/04 01:36:41;;;;;;;5.53;3.40;;;25.40;68.80;;;;;;5082731;27;88711;-53
2023/10/04 01:39:18;;;;;;;9.00;3.80;;;25.30;68.70;;;;;;5083156;27;87462;-54
2023/10/04 01:41:49;;;;;;;6.37;3.63;;;25.30;68.60;;;;;;5082642;27;88518;-54
2023/10/04 01:44:17;;;;;;;7.70;4.03;;;25.40;68.80;;;;;;5082307;27;87937;-54
2023/10/04 01:46:45;;;;;;;6.40;3.70;;;25.40;68.80;;;;;;5082778;27;87714;-54
2023/10/04 01:49:13;;;;;;;6.90;3.50;;;25.40;68.80;;;;;;5082966;27;87620;-54
2023/10/04 01:51:42;;;;;;;6.90;3.20;;;25.40;68.60;;;;;;5081979;27;88162;-54
2023/10/04 01:54:13;;;;;;;5.47;3.20;;;25.40;68.70;;;;;;5081620;27;89188;-54
2023/10/04 01:56:41;;;;;;;7.47;3.87;;;25.40;68.60;;;;;;5082621;27;88605;-54
2023/10/04 01:59:13;;;;;;;5.03;3.63;;;25.40;68.50;;;;;;5082543;27;87695;-54
2023/10/04 02:01:41;;;;;;;8.30;3.13;;;25.40;68.60;;;;;;5081911;27;88567;-53
2023/10/04 02:04:10;;;;;;;5.10;3.43;;;25.40;68.50;;;;;;5075858;27;89112;-54
2023/10/04 02:06:38;;;;;;;5.20;3.13;;;25.40;68.50;;;;;;5073500;27;88102;-54
2023/10/04 02:09:11;;;;;;;7.37;3.67;;;25.40;68.40;;;;;;5069478;27;87516;-54
2023/10/04 02:11:41;;;;;;;6.63;3.20;;;25.30;68.30;;;;;;5071128;27;88695;-53
2023/10/04 02:14:11;;;;;;;5.93;3.70;;;25.40;68.40;;;;;;5068882;27;88047;-53
2023/10/04 02:16:39;;;;;;;8.13;3.50;;;25.40;69.20;;;;;;5068059;27;87802;-54
2023/10/04 02:19:07;;;;;;;8.27;4.03;;;25.30;68.40;;;;;;5068942;27;88046;-53
2023/10/04 02:21:35;;;;;;;5.77;3.83;;;25.30;68.40;;;;;;5070929;27;88585;-53
2023/10/04 02:24:04;;;;;;;6.70;4.43;;;25.30;68.30;;;;;;5071699;27;88286;-53
2023/10/04 02:26:35;;;;;;;8.53;4.10;;;25.30;68.40;;;;;;5072001;27;87806;-53
2023/10/04 02:29:09;;;;;;;8.77;4.77;;;25.30;68.50;;;;;;5069477;27;87580;-53
2023/10/04 02:31:38;;;;;;;6.97;4.03;;;25.30;68.60;;;;;;5072454;27;89928;-54
2023/10/04 02:34:07;;;;;;;8.63;4.77;;;25.30;68.60;;;;;;5072563;27;87876;-54
2023/10/04 02:36:35;;;;;;;7.50;4.60;;;25.30;68.60;;;;;;5072420;27;87676;-53
2023/10/04 02:39:11;;;;;;;8.87;4.77;;;25.30;68.60;;;;;;5071167;27;87454;-53
2023/10/04 02:41:41;;;;;;;7.33;4.43;;;25.30;68.60;;;;;;5070007;27;88560;-53
2023/10/04 02:44:09;;;;;;;8.00;5.33;;;25.30;68.80;;;;;;5068615;27;89053;-54
2023/10/04 02:46:42;;;;;;;9.93;4.77;;;25.30;68.70;;;;;;5071058;27;88598;-54
2023/10/04 02:49:11;;;;;;;7.77;4.67;;;25.20;68.80;;;;;;5070843;27;87577;-54
2023/10/04 02:51:39;;;;;;;11.67;5.43;;;25.30;68.90;;;;;;5072177;27;88540;-53
2023/10/04 02:54:07;;;;;;;6.50;4.63;;;25.20;68.90;;;;;;5071198;27;89225;-53
2023/10/04 02:56:45;;;;;;;8.23;5.30;;;25.30;68.90;;;;;;5069068;27;87748;-54
2023/10/04 02:59:16;;;;;;;9.87;5.20;;;25.20;68.90;;;;;;5072125;27;87499;-53
2023/10/04 03:01:46;;;;;;;9.53;5.27;;;25.20;68.80;;;;;;5070254;27;88580;-53
2023/10/04 03:04:15;;;;;;;9.77;5.77;;;25.20;68.90;;;;;;5071480;27;89032;-53
2023/10/04 03:06:44;;;;;;;8.50;5.10;;;25.20;68.90;;;;;;5071670;27;87799;-54
2023/10/04 03:09:13;;;;;;;6.07;4.47;;;25.20;69.00;;;;;;5069322;27;87810;-54
2023/10/04 03:11:42;;;;;;;12.50;6.13;;;25.10;68.90;;;;;;5070090;27;89668;-53
2023/10/04 03:14:12;;;;;;;10.17;4.37;;;25.20;69.00;;;;;;5073576;27;88298;-54
2023/10/04 03:16:42;;;;;;;9.33;5.60;;;25.10;68.90;;;;;;5075891;27;87702;-53
2023/10/04 03:19:12;;;;;;;8.87;5.23;;;25.20;69.00;;;;;;5081256;27;87542;-53
2023/10/04 03:21:45;;;;;;;10.63;6.27;;;25.20;69.20;;;;;;5066765;27;89628;-53
2023/10/04 03:24:14;;;;;;;8.97;6.20;;;25.10;69.00;;;;;;5080957;27;87545;-53
2023/10/04 03:26:44;;;;;;;11.70;6.57;;;25.20;69.00;;;;;;5079003;27;89187;-53
2023/10/04 03:29:13;;;;;;;12.07;5.97;;;25.10;68.90;;;;;;5072396;27;87693;-53
2023/10/04 03:31:42;;;;;;;11.57;6.27;;;25.20;69.20;;;;;;5074119;27;89871;-53
2023/10/04 03:34:11;;;;;;;9.20;5.90;;;25.10;69.00;;;;;;5071054;27;90010;-54
2023/10/04 03:36:40;;;;;;;12.97;6.40;;;25.20;68.90;;;;;;5073166;27;88460;-53
2023/10/04 03:39:16;;;;;;;9.10;6.00;;;25.10;68.80;;;;;;5072882;27;87696;-54
2023/10/04 03:41:47;;;;;;;11.73;6.00;;;25.20;69.00;;;;;;5071880;27;88194;-54
2023/10/04 03:44:16;;;;;;;10.53;6.40;;;25.20;68.90;;;;;;5072356;27;88994;-53
2023/10/04 03:46:44;;;;;;;12.63;6.33;;;25.20;68.90;;;;;;5071871;27;87713;-53
2023/10/04 03:49:14;;;;;;;8.57;6.40;;;25.20;68.80;;;;;;5074766;27;87714;-53
2023/10/04 03:51:42;;;;;;;12.80;6.30;;;25.10;68.70;;;;;;5073607;27;87529;-53
2023/10/04 03:54:12;;;;;;;10.10;6.10;;;25.20;68.70;;;;;;5072381;27;88295;-53
2023/10/04 03:56:41;;;;;;;14.70;6.77;;;25.20;68.70;;;;;;5073555;27;88884;-53
2023/10/04 03:59:11;;;;;;;12.07;6.50;;;25.10;68.60;;;;;;5068271;27;87798;-53
2023/10/04 04:01:39;;;;;;;9.57;6.40;;;25.20;68.70;;;;;;5063593;27;88744;-53
2023/10/04 04:04:08;;;;;;;9.93;5.47;;;25.10;68.70;;;;;;5068441;27;90314;-53
2023/10/04 04:06:38;;;;;;;8.40;6.43;;;25.10;68.70;;;;;;5077096;27;88841;-53
2023/10/04 04:09:09;;;;;;;14.93;5.50;;;25.20;68.80;;;;;;5071671;27;87852;-54
2023/10/04 04:11:38;;;;;;;10.20;6.03;;;25.20;68.70;;;;;;5063846;27;89625;-54
2023/10/04 04:14:07;;;;;;;9.97;5.97;;;25.10;68.80;;;;;;5063348;27;88074;-55
2023/10/04 04:16:37;;;;;;;10.40;6.83;;;25.10;68.80;;;;;;5074266;27;87735;-55
2023/10/04 04:19:06;;;;;;;10.23;5.87;;;25.10;68.80;;;;;;5083870;27;87652;-54
2023/10/04 04:21:34;;;;;;;10.23;6.10;;;25.10;68.90;;;;;;5083617;27;87437;-54
2023/10/04 04:24:06;;;;;;;9.30;6.27;;;25.10;68.90;;;;;;5083363;27;90088;-54
2023/10/04 04:26:34;;;;;;;11.63;6.50;;;25.00;68.90;;;;;;5083988;27;88909;-54
2023/10/04 04:29:02;;;;;;;10.40;6.73;;;25.10;69.00;;;;;;5083900;27;87630;-54
2023/10/04 04:31:31;;;;;;;11.97;6.40;;;25.10;68.90;;;;;;5084146;27;87626;-54
2023/10/04 04:34:00;;;;;;;8.33;5.50;;;25.10;69.00;;;;;;5084090;27;88230;-54
2023/10/04 04:36:31;;;;;;;7.20;5.43;;;25.00;68.90;;;;;;5083158;27;87758;-55
2023/10/04 04:39:04;;;;;;;7.67;5.33;;;25.00;68.90;;;;;;5076944;27;87982;-54
2023/10/04 04:41:35;;;;;;;12.63;5.90;;;25.00;68.90;;;;;;5082785;27;88615;-54
2023/10/04 04:44:07;;;;;;;10.20;5.93;;;25.00;69.00;;;;;;5083910;27;87937;-54
2023/10/04 04:46:35;;;;;;;7.60;5.10;;;25.00;69.00;;;;;;5083039;27;87836;-54
2023/10/04 04:49:04;;;;;;;10.87;5.67;;;25.00;69.10;;;;;;5083004;27;88253;-54
2023/10/04 04:51:33;;;;;;;7.50;5.03;;;25.00;69.00;;;;;;5076631;27;89835;-54
2023/10/04 04:54:02;;;;;;;10.17;5.27;;;25.00;69.10;;;;;;5062877;27;88033;-54
2023/10/04 04:56:31;;;;;;;9.67;6.37;;;25.00;70.00;;;;;;5063089;27;88901;-54
2023/10/04 04:59:07;;;;;;;6.57;4.93;;;24.90;69.00;;;;;;5070543;27;87847;-54
2023/10/04 05:01:38;;;;;;;7.97;5.67;;;25.00;70.20;;;;;;5083146;27;89635;-54
2023/10/04 05:04:07;;;;;;;7.83;5.03;;;25.00;69.20;;;;;;5083552;27;88133;-54
2023/10/04 05:06:36;;;;;;;9.10;5.20;;;25.00;69.30;;;;;;5083107;27;88827;-54
2023/10/04 05:09:05;;;;;;;7.07;4.03;;;24.90;69.10;;;;;;5083246;27;87807;-54
2023/10/04 05:11:36;;;;;;;7.93;4.63;;;25.00;69.20;;;;;;5083261;27;89541;-54
2023/10/04 05:14:06;;;;;;;5.83;4.00;;;25.00;69.20;;;;;;5082800;27;87895;-54
2023/10/04 05:16:35;;;;;;;5.80;4.67;;;24.90;69.00;;;;;;5083059;27;88917;-54
2023/10/04 05:19:04;;;;;;;6.13;4.30;;;25.00;69.20;;;;;;5083135;27;87649;-54
2023/10/04 05:21:33;;;;;;;6.97;3.43;;;25.00;69.00;;;;;;5082669;27;88664;-54
2023/10/04 05:24:03;;;;;;;6.03;3.73;;;24.90;69.00;;;;;;5082569;27;87916;-54
2023/10/04 05:26:32;;;;;;;9.83;4.20;;;25.00;69.10;;;;;;5080911;27;87761;-54
2023/10/04 05:29:00;;;;;;;11.47;5.37;;;25.00;68.90;;;;;;5082918;27;87689;-55
2023/10/04 05:31:29;;;;;;;7.43;4.13;;;25.00;69.00;;;;;;5082241;27;88681;-54
2023/10/04 05:33:57;;;;;;;7.07;4.50;;;25.00;69.10;;;;;;5081898;27;88091;-56
2023/10/04 05:36:25;;;;;;;6.67;3.87;;;25.00;69.10;;;;;;5081673;27;87371;-58
2023/10/04 05:38:53;;;;;;;6.07;4.33;;;25.00;69.20;;;;;;5082523;27;87894;-55
2023/10/04 05:41:22;;;;;;;5.43;3.87;;;24.90;69.20;;;;;;5082725;27;88473;-55
2023/10/04 05:43:50;;;;;;;5.73;3.87;;;25.00;69.20;;;;;;5077697;27;87961;-55
2023/10/04 05:46:18;;;;;;;7.37;3.90;;;25.00;69.40;;;;;;5081351;27;87341;-55
2023/10/04 05:48:48;;;;;;;5.60;3.60;;;25.00;70.20;;;;;;5082824;27;87336;-57
2023/10/04 05:51:17;;;;;;;4.83;3.10;;;25.00;69.50;;;;;;5081525;27;88537;-58
2023/10/04 05:53:47;;;;;;;5.90;2.53;;;24.90;69.40;;;;;;5081565;27;89060;-58
2023/10/04 05:56:19;;;;;;;5.53;3.27;;;25.00;69.60;;;;;;5082276;27;87757;-58
2023/10/04 05:58:48;;;;;;;5.43;2.37;;;25.00;69.40;;;;;;5079672;27;87570;-58
2023/10/04 06:01:17;;;;;;;6.47;2.50;;;25.10;69.50;;;;;;5074003;27;88426;-58
2023/10/04 06:03:46;;;;;;;5.07;2.60;;;25.00;69.40;;;;;;5081296;27;89139;-58
2023/10/04 06:06:15;;;;;;;4.30;2.60;;;25.00;69.40;;;;;;5063055;27;87966;-58
2023/10/04 06:08:45;;;;;;;3.93;2.47;;;25.00;69.40;;;;;;5082305;27;87640;-57
2023/10/04 06:11:14;;;;;;;7.57;4.10;;;25.10;69.40;;;;;;5082684;27;89655;-59
2023/10/04 06:13:42;;;;;;;4.50;3.03;;;25.10;69.70;;;;;;5084914;27;89269;-61
2023/10/04 06:16:10;;;;;;;6.03;3.97;;;25.10;70.60;;;;;;5082090;27;88921;-59
2023/10/04 06:18:41;;;;;;;6.77;3.90;;;25.10;69.80;;;;;;5080698;27;87656;-55
2023/10/04 06:21:11;;;;;;;4.63;3.30;;;25.10;70.00;;;;;;5081826;27;87506;-55
2023/10/04 06:23:41;;;;;;;6.90;3.70;;;25.30;70.20;;;;;;5081763;27;87786;-55
2023/10/04 06:26:09;;;;;;;5.87;3.73;;;25.40;71.40;;;;;;5081202;27;87881;-57
2023/10/04 06:28:37;;;;;;;4.83;3.20;;;25.40;70.60;;;;;;5081131;27;88126;-55
2023/10/04 06:31:06;;;;;;;4.73;3.20;;;25.50;70.90;;;;;;5069201;27;88532;-55
2023/10/04 06:33:34;;;;;;;5.93;4.17;;;25.60;71.00;;;;;;5081834;27;89316;-55
2023/10/04 06:36:03;;;;;;;5.83;4.30;;;25.60;71.10;;;;;;5080152;27;87408;-57
2023/10/04 06:38:31;;;;;;;6.47;3.73;;;25.60;71.40;;;;;;5074201;27;88285;-57
2023/10/04 06:41:03;;;;;;;4.67;3.10;;;25.60;71.30;;;;;;5081440;27;88548;-54
2023/10/04 06:43:31;;;;;;;7.47;3.90;;;25.60;71.50;;;;;;5080613;27;88043;-55
2023/10/04 06:45:59;;;;;;;4.83;2.73;;;25.60;71.40;;;;;;5074593;27;87771;-54
2023/10/04 06:48:27;;;;;;;5.40;2.50;;;25.60;71.50;;;;;;5079210;27;87531;-55
2023/10/04 06:50:55;;;;;;;5.50;2.90;;;25.60;71.50;;;;;;5078049;27;88604;-56
2023/10/04 06:53:23;;;;;;;5.83;3.07;;;25.60;71.60;;;;;;5068873;27;88970;-54
2023/10/04 06:55:51;;;;;;;4.20;2.60;;;25.70;71.70;;;;;;5074483;27;89865;-55
2023/10/04 06:58:21;;;;;;;2.83;2.20;;;25.50;71.50;;;;;;5081015;27;88332;-56
2023/10/04 07:00:50;;;;;;;3.33;2.30;;;25.50;71.40;;;;;;5066538;27;87336;-56
2023/10/04 07:03:18;;;;;;;3.93;2.37;;;25.50;71.40;;;;;;5070411;27;89091;-55
2023/10/04 07:05:47;;;;;;;3.00;1.93;;;25.50;71.40;;;;;;5077634;27;91474;-55
2023/10/04 07:08:16;;;;;;;4.17;2.13;;;25.50;72.00;;;;;;5063985;27;87394;-56
2023/10/04 07:10:44;;;;;;;4.27;1.83;;;25.50;71.10;;;;;;5075276;27;89627;-56
2023/10/04 07:13:13;;;;;;;2.90;1.83;;;25.40;71.10;;;;;;5070157;27;89138;-56
2023/10/04 07:15:44;;;;;;;8.43;2.13;;;25.50;71.10;;;;;;5067257;27;88703;-56
2023/10/04 07:18:13;;;;;;;3.93;1.80;;;25.40;71.10;;;;;;5076639;27;87914;-56
2023/10/04 07:20:42;;;;;;;5.33;2.10;;;25.40;71.00;;;;;;5065641;27;88474;-55
2023/10/04 07:23:11;;;;;;;2.43;1.53;;;25.40;70.90;;;;;;5071451;27;88201;-56
2023/10/04 07:25:44;;;;;;;2.87;1.73;;;25.40;70.90;;;;;;5073285;27;87764;-56
2023/10/04 07:28:12;;;;;;;4.03;1.63;;;25.30;70.80;;;;;;5063682;27;87489;-56
2023/10/04 07:30:43;;;;;;;3.07;1.00;;;25.30;70.70;;;;;;5075597;27;89690;-56
2023/10/04 07:33:12;;;;;;;3.23;1.50;;;25.30;70.70;;;;;;5069615;27;88016;-56
2023/10/04 07:35:40;;;;;;;1.93;1.27;;;25.30;70.60;;;;;;5066730;27;88790;-56
2023/10/04 07:38:08;;;;;;;1.77;1.20;;;25.30;70.60;;;;;;5077033;27;87635;-56
2023/10/04 07:40:39;;;;;;;1.30;1.00;;;25.30;70.60;;;;;;5064383;27;88291;-56
2023/10/04 07:43:07;;;;;;;1.40;1.30;;;25.30;70.50;;;;;;5080103;27;90292;-56
2023/10/04 07:45:35;;;;;;;1.53;1.10;;;25.30;70.40;;;;;;5080139;27;88698;-56
2023/10/04 07:48:08;;;;;;;1.50;0.93;;;25.30;70.40;;;;;;5080002;27;87514;-56
2023/10/04 07:50:37;;;;;;;1.20;1.10;;;25.30;70.30;;;;;;5080894;27;88570;-56
2023/10/04 07:53:06;;;;;;;3.13;1.33;;;25.30;70.40;;;;;;5080515;27;88034;-56
2023/10/04 07:55:36;;;;;;;4.87;1.23;;;25.20;70.30;;;;;;5080888;27;87415;-56
2023/10/04 07:58:06;;;;;;;1.40;1.30;;;25.20;70.20;;;;;;5081026;27;87711;-56
2023/10/04 08:00:35;;;;;;;2.27;0.87;;;25.20;70.10;;;;;;5062309;27;88791;-56
2023/10/04 08:03:06;;;;;;;1.33;1.07;;;25.20;70.10;;;;;;5060121;27;88092;-56
2023/10/04 08:05:35;;;;;;;2.73;1.40;;;25.20;70.00;;;;;;5060448;27;88856;-56
2023/10/04 08:08:05;;;;;;;2.23;1.00;;;25.20;70.00;;;;;;5059933;27;87763;-56
2023/10/04 08:10:35;;;;;;;1.83;0.90;;;25.20;70.00;;;;;;5063678;27;88588;-56
2023/10/04 08:13:04;;;;;;;1.50;0.93;;;25.20;70.00;;;;;;5080385;27;87891;-56
2023/10/04 08:15:35;;;;;;;3.03;1.20;;;25.10;69.80;;;;;;5077086;27;87380;-56
2023/10/04 08:18:05;;;;;;;2.17;1.00;;;25.20;69.80;;;;;;5063960;27;87642;-56
2023/10/04 08:20:36;;;;;;;1.20;0.80;;;25.20;69.70;;;;;;5063318;27;87396;-56
2023/10/04 08:23:05;;;;;;;3.33;1.03;;;25.10;69.70;;;;;;5077871;27;88054;-56
2023/10/04 08:25:34;;;;;;;1.40;1.00;;;25.20;70.60;;;;;;5082140;27;87738;-56
2023/10/04 08:28:05;;;;;;;1.50;1.23;;;25.20;69.70;;;;;;5083467;27;87798;-56
2023/10/04 08:30:33;;;;;;;1.63;1.17;;;25.10;69.50;;;;;;5082189;27;88605;-56
2023/10/04 08:33:03;;;;;;;1.00;0.80;;;25.20;69.80;;;;;;5082270;27;89115;-56
2023/10/04 08:35:36;;;;;;;2.60;1.23;;;25.20;69.50;;;;;;5083094;27;90123;-56
2023/10/04 08:38:05;;;;;;;1.37;0.80;;;25.20;69.70;;;;;;5081770;27;87505;-56
2023/10/04 08:40:35;;;;;;;1.43;0.80;;;25.10;69.50;;;;;;5082975;27;88529;-56
2023/10/04 08:43:04;;;;;;;2.70;0.73;;;25.10;69.40;;;;;;5081239;27;89327;-56
2023/10/04 08:45:33;;;;;;;3.37;1.30;;;25.10;69.40;;;;;;5079319;27;87968;-56
2023/10/04 08:48:02;;;;;;;1.23;0.93;;;25.20;69.40;;;;;;5081765;27;87649;-56
2023/10/04 08:50:34;;;;;;;1.13;0.60;;;25.10;69.30;;;;;;5082609;27;88427;-56
2023/10/04 08:53:04;;;;;;;1.50;1.03;;;25.10;69.40;;;;;;5079361;27;89138;-56
2023/10/04 08:55:35;;;;;;;3.47;1.10;;;25.20;69.40;;;;;;5083384;27;87758;-56
2023/10/04 08:58:04;;;;;;;2.50;1.20;;;25.20;69.40;;;;;;5083206;27;89766;-56
2023/10/04 09:00:32;;;;;;;2.43;0.97;;;25.20;69.30;;;;;;5075997;27;87635;-56
2023/10/04 09:03:01;;;;;;;2.50;0.90;;;25.10;69.30;;;;;;5079900;27;88043;-56
2023/10/04 09:05:29;;;;;;;3.43;1.20;;;25.20;69.20;;;;;;5082143;27;87518;-56
2023/10/04 09:07:58;;;;;;;3.30;0.93;;;25.20;70.10;;;;;;5081803;27;87601;-56
2023/10/04 09:10:28;;;;;;;1.93;0.70;;;25.20;69.40;;;;;;5080868;27;88584;-56
2023/10/04 09:12:56;;;;;;;1.33;1.00;;;25.10;69.20;;;;;;5081693;27;87427;-56
2023/10/04 09:15:27;;;;;;;1.63;0.70;;;25.20;69.30;;;;;;5081418;27;88961;-56
2023/10/04 09:17:57;;;;;;;0.97;0.80;;;25.20;69.20;;;;;;5080485;27;87708;-56
2023/10/04 09:20:29;;;;;;;1.07;0.83;;;25.20;69.20;;;;;;5078712;27;87849;-56
2023/10/04 09:22:59;;;;;;;1.07;0.80;;;25.20;69.20;;;;;;5080324;27;89015;-56
2023/10/04 09:25:36;;;;;;;2.13;1.20;;;25.20;70.00;;;;;;5081538;27;87558;-56
2023/10/04 09:28:07;;;;;;;1.77;0.93;;;25.10;69.20;;;;;;5080254;27;87566;-56
2023/10/04 09:30:36;;;;;;;2.40;0.87;;;25.10;69.00;;;;;;5080787;27;89600;-56
2023/10/04 09:33:05;;;;;;;3.77;1.03;;;25.10;69.20;;;;;;5081173;27;88050;-56
2023/10/04 09:35:42;;;;;;;1.93;0.80;;;25.10;69.10;;;;;;5081582;27;87896;-56
2023/10/04 09:38:20;;;;;;;1.30;1.03;;;25.10;69.10;;;;;;5074710;27;87595;-56
2023/10/04 09:40:52;;;;;;;4.33;1.13;;;25.10;69.10;;;;;;5081388;27;88571;-56
2023/10/04 09:43:35;;;;;;;1.37;0.70;;;25.00;69.00;;;;;;5080203;27;88690;-56
2023/10/04 09:46:04;;;;;;;1.87;0.90;;;25.10;69.00;;;;;;5075349;27;87688;-56
2023/10/04 09:48:33;;;;;;;1.70;0.80;;;25.10;69.00;;;;;;5080834;27;87933;-56
2023/10/04 09:51:04;;;;;;;1.03;0.93;;;25.10;69.10;;;;;;5078997;27;87516;-56
2023/10/04 09:53:38;;;;;;;2.10;0.87;;;25.10;69.00;;;;;;5076354;27;88890;-56
2023/10/04 09:56:07;;;;;;;2.53;1.10;;;25.10;69.00;;;;;;5082215;27;87737;-56
2023/10/04 09:58:35;;;;;;;0.93;0.57;;;25.10;69.00;;;;;;5075426;27;88226;-54
2023/10/04 10:01:08;;;;;;;2.30;0.90;;;25.10;69.20;;;;;;5080879;27;89651;-57
2023/10/04 10:03:41;;;;;;;1.43;0.83;;;25.10;70.00;;;;;;5080801;27;89103;-58
2023/10/04 10:06:10;;;;;;;2.33;1.00;;;25.10;69.20;;;;;;5078199;27;88066;-58
2023/10/04 10:08:40;;;;;;;1.43;0.97;;;25.20;69.40;;;;;;5073734;27;87726;-58
2023/10/04 10:11:10;;;;;;;1.73;0.87;;;25.20;69.40;;;;;;5078149;27;90609;-58
2023/10/04 10:13:38;;;;;;;1.27;1.00;;;25.20;69.40;;;;;;5079972;27;88662;-58
2023/10/04 10:16:07;;;;;;;1.40;0.70;;;25.20;69.40;;;;;;5080469;27;88655;-59
2023/10/04 10:18:35;;;;;;;2.20;0.73;;;25.20;69.40;;;;;;5079167;27;88441;-59
2023/10/04 10:21:04;;;;;;;2.83;0.70;;;25.20;69.40;;;;;;5077676;27;87466;-58
2023/10/04 10:23:32;;;;;;;1.60;0.80;;;25.20;69.40;;;;;;5071709;27;88355;-58
2023/10/04 10:26:20;;;;;;;5.30;0.97;;;25.20;69.60;;;;;;5079631;27;89195;-58
2023/10/04 10:28:49;;;;;;;2.00;0.90;;;25.20;69.60;;;;;;5079543;27;87649;-58
2023/10/04 10:31:20;;;;;;;2.87;1.33;;;25.20;69.40;;;;;;5078939;27;88425;-58
2023/10/04 10:33:50;;;;;;;3.23;1.20;;;25.20;69.50;;;;;;5078309;27;88113;-58
2023/10/04 10:36:22;;;;;;;1.27;0.90;;;25.20;69.40;;;;;;5077026;27;87852;-58
2023/10/04 10:38:51;;;;;;;0.83;0.70;;;25.30;69.60;;;;;;5077160;27;88031;-58
2023/10/04 10:42:03;;;;;;;7.47;1.00;;;25.30;69.60;;;;;;5074668;27;88634;-58
2023/10/04 10:44:34;;;;;;;4.30;1.10;;;25.20;69.60;;;;;;5075598;27;89254;-58
2023/10/04 10:47:07;;;;;;;2.00;0.87;;;25.30;69.70;;;;;;5075190;27;88691;-59
2023/10/04 10:49:44;;;;;;;1.70;1.13;;;25.30;69.70;;;;;;5072974;27;87666;-58
2023/10/04 10:52:24;;;;;;;1.97;0.93;;;25.20;69.60;;;;;;5076490;27;88739;-58
2023/10/04 10:54:53;;;;;;;1.93;1.17;;;25.30;69.60;;;;;;5077784;27;88932;-59
2023/10/04 10:57:21;;;;;;;2.00;0.97;;;25.20;69.70;;;;;;5074392;27;88146;-58
2023/10/04 10:59:53;;;;;;;2.23;0.87;;;25.30;69.70;;;;;;5078822;27;88681;-58
2023/10/04 11:02:21;;;;;;;3.07;1.13;;;25.30;70.70;;;;;;5079039;27;88777;-58
2023/10/04 11:04:50;;;;;;;2.37;1.27;;;25.80;70.20;;;;;;5073119;27;89203;-58
2023/10/04 11:07:19;;;;;;;3.40;0.73;;;25.30;69.70;;;;;;5072195;27;89805;-58
2023/10/04 11:09:49;;;;;;;3.03;1.17;;;25.30;69.90;;;;;;5075858;27;87654;-58
2023/10/04 11:12:22;;;;;;;1.90;1.30;;;25.20;69.70;;;;;;5075647;27;87533;-58
2023/10/04 11:14:52;;;;;;;2.00;0.90;;;25.30;69.80;;;;;;5070229;27;88452;-58
2023/10/04 11:17:21;;;;;;;1.43;0.70;;;25.20;69.70;;;;;;5072533;27;89059;-58
2023/10/04 11:19:50;;;;;;;1.80;0.70;;;25.30;69.70;;;;;;5068050;27;87762;-58
2023/10/04 11:22:20;;;;;;;1.90;0.70;;;25.20;69.40;;;;;;5078016;27;88524;-58
2023/10/04 11:24:49;;;;;;;2.70;0.80;;;25.30;69.60;;;;;;5072203;27;88077;-58
2023/10/04 11:27:22;;;;;;;3.63;0.70;;;25.30;69.50;;;;;;5073128;27;88545;-58
2023/10/04 11:29:52;;;;;;;3.90;0.80;;;25.30;69.40;;;;;;5074311;27;87930;-58
2023/10/04 11:32:21;;;;;;;2.40;1.17;;;25.30;69.40;;;;;;5079538;27;88575;-58
2023/10/04 11:34:50;;;;;;;3.60;0.93;;;25.30;69.40;;;;;;5077524;27;88113;-58
2023/10/04 11:37:18;;;;;;;1.63;0.70;;;25.30;69.40;;;;;;5070829;27;88195;-58
2023/10/04 11:39:46;;;;;;;1.10;0.70;;;25.30;69.40;;;;;;5068657;27;87658;-58
2023/10/04 11:42:20;;;;;;;0.80;0.70;;;25.40;69.30;;;;;;5074600;27;88478;-58
2023/10/04 11:44:48;;;;;;;2.57;0.60;;;25.30;69.20;;;;;;5065560;27;89061;-58
2023/10/04 11:47:28;;;;;;;2.20;1.03;;;25.30;69.40;;;;;;5067797;27;87597;-58
2023/10/04 11:49:58;;;;;;;2.10;1.03;;;25.30;69.40;;;;;;5079796;27;87685;-58
2023/10/04 11:52:31;;;;;;;2.93;1.13;;;25.30;69.20;;;;;;5079838;27;89745;-58
2023/10/04 11:54:59;;;;;;;0.63;0.50;;;25.30;69.20;;;;;;5069439;27;90043;-58
2023/10/04 11:57:29;;;;;;;3.30;0.50;;;25.30;69.20;;;;;;5083764;27;89236;-58
2023/10/04 11:59:57;;;;;;;2.40;1.20;;;25.30;69.10;;;;;;5070051;27;87600;-58
2023/10/04 12:02:25;;;;;;;2.00;1.00;;;25.50;69.30;;;;;;5078483;27;89307;-58
2023/10/04 12:04:55;;;;;;;7.30;1.07;;;25.30;69.00;;;;;;5070636;27;88328;-58
2023/10/04 12:07:25;;;;;;;1.60;0.73;;;25.30;69.20;;;;;;5074563;27;87554;-58
2023/10/04 12:09:54;;;;;;;1.70;0.77;;;25.30;69.00;;;;;;5075488;27;88320;-58
2023/10/04 12:12:22;;;;;;;1.13;0.57;;;25.30;69.00;;;;;;5071910;27;89067;-58
2023/10/04 12:14:51;;;;;;;1.63;0.70;;;25.30;68.90;;;;;;5067753;27;88227;-58
2023/10/04 12:17:19;;;;;;;1.10;0.47;;;25.30;69.00;;;;;;5079627;27;88091;-58
2023/10/04 12:19:47;;;;;;;2.23;0.70;;;25.30;68.90;;;;;;5083084;27;87867;-58
2023/10/04 12:22:19;;;;;;;0.43;0.40;;;25.30;69.10;;;;;;5082357;27;88591;-56
2023/10/04 12:24:47;;;;;;;2.97;0.60;;;25.30;68.90;;;;;;5069458;27;88239;-59
2023/10/04 12:27:21;;;;;;;2.50;0.97;;;25.30;68.80;;;;;;5072384;27;87944;-57
2023/10/04 12:29:50;;;;;;;3.03;0.67;;;25.30;68.80;;;;;;5070480;27;87410;-58
2023/10/04 12:32:19;;;;;;;0.93;0.63;;;25.30;68.80;;;;;;5078965;27;88628;-59
2023/10/04 12:34:47;;;;;;;0.87;0.87;;;25.30;68.90;;;;;;5072786;27;88217;-58
2023/10/04 12:37:16;;;;;;;0.47;0.47;;;25.30;68.60;;;;;;5080104;27;88893;-58
2023/10/04 12:39:45;;;;;;;2.23;0.80;;;25.40;68.60;;;;;;5082030;27;87717;-58
2023/10/04 12:42:14;;;;;;;1.50;0.87;;;25.30;68.60;;;;;;5076110;27;87411;-58
2023/10/04 12:44:42;;;;;;;1.03;0.60;;;25.30;68.50;;;;;;5081306;27;89166;-58
2023/10/04 12:47:12;;;;;;;0.53;0.53;;;25.40;68.60;;;;;;5082334;27;89764;-58
2023/10/04 12:49:42;;;;;;;4.13;0.80;;;25.30;68.40;;;;;;5082622;27;87654;-59
2023/10/04 12:52:11;;;;;;;4.03;0.77;;;25.30;68.40;;;;;;5078581;27;88703;-59
2023/10/04 12:54:40;;;;;;;0.93;0.80;;;25.30;68.30;;;;;;5079456;27;88113;-58
2023/10/04 12:57:11;;;;;;;1.03;0.70;;;25.30;68.40;;;;;;5068808;27;87818;-58
2023/10/04 12:59:40;;;;;;;1.30;0.63;;;25.30;68.40;;;;;;5066512;27;87571;-58